sensor_id;sensor_type;location;lat;lon;timestamp;P1;durP1;ratioP1;P2;durP2;ratioP2
30593;SDS011;33199;47.590;8.300;2022-10-16T00:01:58;2.00;;;1.73;;
30593;SDS011;33199;47.590;8.300;2022-10-16T00:04:24;2.85;;;1.50;;
30593;SDS011;33199;47.590;8.300;2022-10-16T00:06:49;1.63;;;1.52;;
30593;SDS011;33199;47.590;8.300;2022-10-16T00:09:15;1.55;;;1.45;;
30593;SDS011;33199;47.590;8.300;2022-10-16T00:11:41;2.53;;;1.50;;
30593;SDS011;33199;47.590;8.300;2022-10-16T00:14:08;1.55;;;1.45;;
30593;SDS011;33199;47.590;8.300;2022-10-16T00:16:37;1.20;;;1.20;;
30593;SDS011;33199;47.590;8.300;2022-10-16T00:19:02;2.10;;;1.50;;
30593;SDS011;33199;47.590;8.300;2022-10-16T00:21:29;1.50;;;1.40;;
30593;SDS011;33199;47.590;8.300;2022-10-16T00:23:59;2.50;;;1.45;;
30593;SDS011;33199;47.590;8.300;2022-10-16T00:26:29;1.50;;;1.40;;
30593;SDS011;33199;47.590;8.300;2022-10-16T00:28:56;1.60;;;1.50;;
30593;SDS011;33199;47.590;8.300;2022-10-16T00:31:22;2.20;;;2.00;;
30593;SDS011;33199;47.590;8.300;2022-10-16T00:33:48;1.58;;;1.45;;
30593;SDS011;33199;47.590;8.300;2022-10-16T00:36:15;1.77;;;1.48;;
30593;SDS011;33199;47.590;8.300;2022-10-16T00:38:43;1.50;;;1.40;;
30593;SDS011;33199;47.590;8.300;2022-10-16T00:41:13;1.42;;;1.25;;
30593;SDS011;33199;47.590;8.300;2022-10-16T00:51:44;1.63;;;1.50;;
30593;SDS011;33199;47.590;8.300;2022-10-16T00:54:13;1.52;;;1.42;;
30593;SDS011;33199;47.590;8.300;2022-10-16T00:56:44;1.52;;;1.42;;
30593;SDS011;33199;47.590;8.300;2022-10-16T00:59:15;1.50;;;1.40;;
30593;SDS011;33199;47.590;8.300;2022-10-16T01:01:44;1.58;;;1.48;;
30593;SDS011;33199;47.590;8.300;2022-10-16T01:04:09;1.70;;;1.30;;
30593;SDS011;33199;47.590;8.300;2022-10-16T01:09:53;1.67;;;1.57;;
30593;SDS011;33199;47.590;8.300;2022-10-16T01:20:20;1.48;;;1.38;;
30593;SDS011;33199;47.590;8.300;2022-10-16T01:28:46;1.15;;;1.15;;
30593;SDS011;33199;47.590;8.300;2022-10-16T01:31:13;1.60;;;1.50;;
30593;SDS011;33199;47.590;8.300;2022-10-16T01:33:42;1.70;;;1.40;;
30593;SDS011;33199;47.590;8.300;2022-10-16T01:36:15;1.88;;;1.50;;
30593;SDS011;33199;47.590;8.300;2022-10-16T01:38:46;1.73;;;1.63;;
30593;SDS011;33199;47.590;8.300;2022-10-16T01:41:15;1.88;;;1.60;;
30593;SDS011;33199;47.590;8.300;2022-10-16T01:43:51;1.17;;;1.08;;
30593;SDS011;33199;47.590;8.300;2022-10-16T01:46:22;1.40;;;1.30;;
30593;SDS011;33199;47.590;8.300;2022-10-16T01:48:49;1.77;;;1.67;;
30593;SDS011;33199;47.590;8.300;2022-10-16T01:51:17;1.60;;;1.50;;
30593;SDS011;33199;47.590;8.300;2022-10-16T01:53:45;1.65;;;1.55;;
30593;SDS011;33199;47.590;8.300;2022-10-16T01:56:15;1.60;;;1.50;;
30593;SDS011;33199;47.590;8.300;2022-10-16T01:58:45;1.60;;;1.45;;
30593;SDS011;33199;47.590;8.300;2022-10-16T02:01:16;1.75;;;1.48;;
30593;SDS011;33199;47.590;8.300;2022-10-16T02:03:46;1.73;;;1.38;;
30593;SDS011;33199;47.590;8.300;2022-10-16T02:06:17;2.10;;;1.75;;
30593;SDS011;33199;47.590;8.300;2022-10-16T02:08:43;2.47;;;1.58;;
30593;SDS011;33199;47.590;8.300;2022-10-16T02:11:09;1.63;;;1.52;;
30593;SDS011;33199;47.590;8.300;2022-10-16T02:16:10;1.73;;;1.63;;
30593;SDS011;33199;47.590;8.300;2022-10-16T02:18:37;1.45;;;1.35;;
30593;SDS011;33199;47.590;8.300;2022-10-16T02:21:23;1.58;;;1.40;;
30593;SDS011;33199;47.590;8.300;2022-10-16T02:24:15;1.23;;;1.10;;
30593;SDS011;33199;47.590;8.300;2022-10-16T02:27:04;1.40;;;1.30;;
30593;SDS011;33199;47.590;8.300;2022-10-16T02:29:37;1.52;;;1.42;;
30593;SDS011;33199;47.590;8.300;2022-10-16T02:32:09;1.40;;;1.30;;
30593;SDS011;33199;47.590;8.300;2022-10-16T02:34:37;1.48;;;1.38;;
30593;SDS011;33199;47.590;8.300;2022-10-16T02:37:04;1.50;;;1.40;;
30593;SDS011;33199;47.590;8.300;2022-10-16T02:39:31;1.50;;;1.33;;
30593;SDS011;33199;47.590;8.300;2022-10-16T02:41:57;1.92;;;1.65;;
30593;SDS011;33199;47.590;8.300;2022-10-16T02:44:23;1.65;;;1.55;;
30593;SDS011;33199;47.590;8.300;2022-10-16T02:46:48;3.28;;;1.65;;
30593;SDS011;33199;47.590;8.300;2022-10-16T02:49:14;2.25;;;1.30;;
30593;SDS011;33199;47.590;8.300;2022-10-16T02:51:40;1.50;;;1.40;;
30593;SDS011;33199;47.590;8.300;2022-10-16T02:54:05;1.48;;;1.38;;
30593;SDS011;33199;47.590;8.300;2022-10-16T02:56:31;1.52;;;1.42;;
30593;SDS011;33199;47.590;8.300;2022-10-16T02:58:57;1.65;;;1.30;;
30593;SDS011;33199;47.590;8.300;2022-10-16T03:01:23;1.52;;;1.42;;
30593;SDS011;33199;47.590;8.300;2022-10-16T03:03:48;1.52;;;1.40;;
30593;SDS011;33199;47.590;8.300;2022-10-16T03:06:14;1.58;;;1.48;;
30593;SDS011;33199;47.590;8.300;2022-10-16T03:08:40;1.98;;;1.73;;
30593;SDS011;33199;47.590;8.300;2022-10-16T03:11:05;1.20;;;1.20;;
30593;SDS011;33199;47.590;8.300;2022-10-16T03:13:31;1.55;;;1.45;;
30593;SDS011;33199;47.590;8.300;2022-10-16T03:15:56;1.13;;;1.13;;
30593;SDS011;33199;47.590;8.300;2022-10-16T03:18:22;1.40;;;1.30;;
30593;SDS011;33199;47.590;8.300;2022-10-16T03:20:47;1.40;;;1.30;;
30593;SDS011;33199;47.590;8.300;2022-10-16T03:23:13;1.00;;;1.00;;
30593;SDS011;33199;47.590;8.300;2022-10-16T03:25:39;1.40;;;1.30;;
30593;SDS011;33199;47.590;8.300;2022-10-16T03:28:04;1.50;;;1.40;;
30593;SDS011;33199;47.590;8.300;2022-10-16T03:30:30;1.27;;;1.20;;
30593;SDS011;33199;47.590;8.300;2022-10-16T03:32:56;2.47;;;1.52;;
30593;SDS011;33199;47.590;8.300;2022-10-16T03:35:22;1.40;;;1.30;;
30593;SDS011;33199;47.590;8.300;2022-10-16T03:37:48;1.55;;;1.45;;
30593;SDS011;33199;47.590;8.300;2022-10-16T03:40:14;1.55;;;1.45;;
30593;SDS011;33199;47.590;8.300;2022-10-16T03:42:42;1.38;;;1.27;;
30593;SDS011;33199;47.590;8.300;2022-10-16T03:45:08;1.60;;;1.50;;
30593;SDS011;33199;47.590;8.300;2022-10-16T03:47:34;1.27;;;1.25;;
30593;SDS011;33199;47.590;8.300;2022-10-16T03:50:00;1.33;;;1.27;;
30593;SDS011;33199;47.590;8.300;2022-10-16T03:52:26;1.27;;;1.20;;
30593;SDS011;33199;47.590;8.300;2022-10-16T03:54:51;4.18;;;1.33;;
30593;SDS011;33199;47.590;8.300;2022-10-16T03:57:17;1.50;;;1.27;;
30593;SDS011;33199;47.590;8.300;2022-10-16T03:59:43;1.88;;;1.30;;
30593;SDS011;33199;47.590;8.300;2022-10-16T04:02:08;1.38;;;1.27;;
30593;SDS011;33199;47.590;8.300;2022-10-16T04:04:35;1.75;;;1.65;;
30593;SDS011;33199;47.590;8.300;2022-10-16T04:07:01;1.65;;;1.55;;
30593;SDS011;33199;47.590;8.300;2022-10-16T04:09:26;1.75;;;1.30;;
30593;SDS011;33199;47.590;8.300;2022-10-16T04:11:52;1.50;;;1.40;;
30593;SDS011;33199;47.590;8.300;2022-10-16T04:14:17;1.13;;;1.10;;
30593;SDS011;33199;47.590;8.300;2022-10-16T04:16:43;1.20;;;1.15;;
30593;SDS011;33199;47.590;8.300;2022-10-16T04:19:09;1.40;;;1.30;;
30593;SDS011;33199;47.590;8.300;2022-10-16T04:21:35;1.73;;;1.30;;
30593;SDS011;33199;47.590;8.300;2022-10-16T04:24:02;1.25;;;1.15;;
30593;SDS011;33199;47.590;8.300;2022-10-16T04:26:28;1.30;;;1.20;;
30593;SDS011;33199;47.590;8.300;2022-10-16T04:28:54;1.60;;;1.50;;
30593;SDS011;33199;47.590;8.300;2022-10-16T04:31:20;1.27;;;1.10;;
30593;SDS011;33199;47.590;8.300;2022-10-16T04:33:45;1.40;;;1.30;;
30593;SDS011;33199;47.590;8.300;2022-10-16T04:36:11;1.15;;;1.15;;
30593;SDS011;33199;47.590;8.300;2022-10-16T04:38:37;1.10;;;1.10;;
30593;SDS011;33199;47.590;8.300;2022-10-16T04:41:04;1.27;;;1.27;;
30593;SDS011;33199;47.590;8.300;2022-10-16T04:43:31;1.42;;;1.10;;
30593;SDS011;33199;47.590;8.300;2022-10-16T04:45:56;1.25;;;1.15;;
30593;SDS011;33199;47.590;8.300;2022-10-16T04:48:22;1.00;;;1.00;;
30593;SDS011;33199;47.590;8.300;2022-10-16T04:50:48;1.50;;;1.40;;
30593;SDS011;33199;47.590;8.300;2022-10-16T04:53:13;1.20;;;1.15;;
30593;SDS011;33199;47.590;8.300;2022-10-16T04:55:40;1.48;;;1.30;;
30593;SDS011;33199;47.590;8.300;2022-10-16T04:58:06;1.40;;;1.30;;
30593;SDS011;33199;47.590;8.300;2022-10-16T05:00:32;1.33;;;1.30;;
30593;SDS011;33199;47.590;8.300;2022-10-16T05:02:57;1.33;;;1.23;;
30593;SDS011;33199;47.590;8.300;2022-10-16T05:05:25;0.90;;;0.90;;
30593;SDS011;33199;47.590;8.300;2022-10-16T05:07:51;1.33;;;1.23;;
30593;SDS011;33199;47.590;8.300;2022-10-16T05:10:17;2.55;;;1.42;;
30593;SDS011;33199;47.590;8.300;2022-10-16T05:12:43;1.33;;;1.27;;
30593;SDS011;33199;47.590;8.300;2022-10-16T05:15:09;1.38;;;1.27;;
30593;SDS011;33199;47.590;8.300;2022-10-16T05:17:35;3.80;;;1.10;;
30593;SDS011;33199;47.590;8.300;2022-10-16T05:20:00;1.30;;;1.20;;
30593;SDS011;33199;47.590;8.300;2022-10-16T05:22:26;1.25;;;1.20;;
30593;SDS011;33199;47.590;8.300;2022-10-16T05:24:51;1.02;;;1.02;;
30593;SDS011;33199;47.590;8.300;2022-10-16T05:27:17;1.58;;;1.48;;
30593;SDS011;33199;47.590;8.300;2022-10-16T05:29:46;1.50;;;1.17;;
30593;SDS011;33199;47.590;8.300;2022-10-16T05:32:12;1.23;;;1.13;;
30593;SDS011;33199;47.590;8.300;2022-10-16T05:34:38;1.35;;;1.25;;
30593;SDS011;33199;47.590;8.300;2022-10-16T05:37:04;1.13;;;1.02;;
30593;SDS011;33199;47.590;8.300;2022-10-16T05:39:30;1.25;;;1.20;;
30593;SDS011;33199;47.590;8.300;2022-10-16T05:41:55;2.33;;;1.30;;
30593;SDS011;33199;47.590;8.300;2022-10-16T05:44:21;1.25;;;1.15;;
30593;SDS011;33199;47.590;8.300;2022-10-16T05:46:46;1.33;;;1.23;;
30593;SDS011;33199;47.590;8.300;2022-10-16T05:49:12;1.02;;;1.02;;
30593;SDS011;33199;47.590;8.300;2022-10-16T05:51:38;1.10;;;1.10;;
30593;SDS011;33199;47.590;8.300;2022-10-16T05:54:03;0.90;;;0.90;;
30593;SDS011;33199;47.590;8.300;2022-10-16T05:56:29;1.35;;;1.23;;
30593;SDS011;33199;47.590;8.300;2022-10-16T05:58:54;1.42;;;1.25;;
30593;SDS011;33199;47.590;8.300;2022-10-16T06:01:20;1.25;;;1.15;;
30593;SDS011;33199;47.590;8.300;2022-10-16T06:03:48;1.27;;;1.17;;
30593;SDS011;33199;47.590;8.300;2022-10-16T06:06:18;1.17;;;1.08;;
30593;SDS011;33199;47.590;8.300;2022-10-16T06:08:49;1.10;;;1.10;;
30593;SDS011;33199;47.590;8.300;2022-10-16T06:11:19;1.00;;;1.00;;
30593;SDS011;33199;47.590;8.300;2022-10-16T06:13:50;1.30;;;1.20;;
30593;SDS011;33199;47.590;8.300;2022-10-16T06:16:16;1.25;;;1.02;;
30593;SDS011;33199;47.590;8.300;2022-10-16T06:18:42;1.10;;;1.10;;
30593;SDS011;33199;47.590;8.300;2022-10-16T06:21:09;1.20;;;1.10;;
30593;SDS011;33199;47.590;8.300;2022-10-16T06:23:36;1.00;;;1.00;;
30593;SDS011;33199;47.590;8.300;2022-10-16T06:26:09;0.90;;;0.90;;
30593;SDS011;33199;47.590;8.300;2022-10-16T06:28:36;1.10;;;1.10;;
30593;SDS011;33199;47.590;8.300;2022-10-16T06:31:03;1.13;;;1.13;;
30593;SDS011;33199;47.590;8.300;2022-10-16T06:33:30;1.10;;;1.10;;
30593;SDS011;33199;47.590;8.300;2022-10-16T06:38:29;1.00;;;1.00;;
30593;SDS011;33199;47.590;8.300;2022-10-16T06:40:55;1.27;;;1.10;;
30593;SDS011;33199;47.590;8.300;2022-10-16T06:43:21;1.13;;;1.13;;
30593;SDS011;33199;47.590;8.300;2022-10-16T06:45:51;1.00;;;1.00;;
30593;SDS011;33199;47.590;8.300;2022-10-16T06:48:20;1.40;;;1.30;;
30593;SDS011;33199;47.590;8.300;2022-10-16T06:53:23;0.98;;;0.98;;
30593;SDS011;33199;47.590;8.300;2022-10-16T06:55:49;1.27;;;1.17;;
30593;SDS011;33199;47.590;8.300;2022-10-16T06:58:14;1.20;;;1.08;;
30593;SDS011;33199;47.590;8.300;2022-10-16T07:00:40;0.90;;;0.90;;
30593;SDS011;33199;47.590;8.300;2022-10-16T07:03:05;2.17;;;1.20;;
30593;SDS011;33199;47.590;8.300;2022-10-16T07:05:31;1.20;;;1.10;;
30593;SDS011;33199;47.590;8.300;2022-10-16T07:07:56;0.93;;;0.93;;
30593;SDS011;33199;47.590;8.300;2022-10-16T07:10:22;1.10;;;1.10;;
30593;SDS011;33199;47.590;8.300;2022-10-16T07:12:49;1.17;;;1.17;;
30593;SDS011;33199;47.590;8.300;2022-10-16T07:15:15;1.00;;;1.00;;
30593;SDS011;33199;47.590;8.300;2022-10-16T07:17:40;0.98;;;0.93;;
30593;SDS011;33199;47.590;8.300;2022-10-16T07:20:06;0.95;;;0.95;;
30593;SDS011;33199;47.590;8.300;2022-10-16T07:22:32;1.00;;;1.00;;
30593;SDS011;33199;47.590;8.300;2022-10-16T07:24:57;0.80;;;0.80;;
30593;SDS011;33199;47.590;8.300;2022-10-16T07:27:23;0.90;;;0.90;;
30593;SDS011;33199;47.590;8.300;2022-10-16T07:29:49;1.30;;;1.20;;
30593;SDS011;33199;47.590;8.300;2022-10-16T07:32:15;0.95;;;0.95;;
30593;SDS011;33199;47.590;8.300;2022-10-16T07:34:40;1.13;;;1.10;;
30593;SDS011;33199;47.590;8.300;2022-10-16T07:37:07;1.10;;;1.10;;
30593;SDS011;33199;47.590;8.300;2022-10-16T07:39:32;0.88;;;0.88;;
30593;SDS011;33199;47.590;8.300;2022-10-16T07:41:58;1.02;;;1.00;;
30593;SDS011;33199;47.590;8.300;2022-10-16T07:44:24;1.33;;;1.23;;
30593;SDS011;33199;47.590;8.300;2022-10-16T07:46:49;1.92;;;1.50;;
30593;SDS011;33199;47.590;8.300;2022-10-16T07:49:15;1.30;;;1.20;;
30593;SDS011;33199;47.590;8.300;2022-10-16T07:51:40;1.02;;;1.02;;
30593;SDS011;33199;47.590;8.300;2022-10-16T07:54:07;1.30;;;1.20;;
30593;SDS011;33199;47.590;8.300;2022-10-16T07:56:34;1.00;;;1.00;;
30593;SDS011;33199;47.590;8.300;2022-10-16T07:58:59;1.00;;;1.00;;
30593;SDS011;33199;47.590;8.300;2022-10-16T08:01:25;1.00;;;1.00;;
30593;SDS011;33199;47.590;8.300;2022-10-16T08:03:51;1.10;;;1.10;;
30593;SDS011;33199;47.590;8.300;2022-10-16T08:06:17;1.05;;;1.05;;
30593;SDS011;33199;47.590;8.300;2022-10-16T08:08:44;0.85;;;0.85;;
30593;SDS011;33199;47.590;8.300;2022-10-16T08:11:10;1.00;;;1.00;;
30593;SDS011;33199;47.590;8.300;2022-10-16T08:13:36;1.20;;;1.17;;
30593;SDS011;33199;47.590;8.300;2022-10-16T08:16:02;1.05;;;1.02;;
30593;SDS011;33199;47.590;8.300;2022-10-16T08:18:32;1.00;;;1.00;;
30593;SDS011;33199;47.590;8.300;2022-10-16T08:21:00;1.00;;;1.00;;
30593;SDS011;33199;47.590;8.300;2022-10-16T08:23:26;1.10;;;1.00;;
30593;SDS011;33199;47.590;8.300;2022-10-16T08:25:53;1.00;;;1.00;;
30593;SDS011;33199;47.590;8.300;2022-10-16T08:28:19;0.82;;;0.82;;
30593;SDS011;33199;47.590;8.300;2022-10-16T08:30:45;1.20;;;1.13;;
30593;SDS011;33199;47.590;8.300;2022-10-16T08:33:11;1.10;;;1.10;;
30593;SDS011;33199;47.590;8.300;2022-10-16T08:35:36;2.60;;;2.40;;
30593;SDS011;33199;47.590;8.300;2022-10-16T08:38:05;2.90;;;2.70;;
30593;SDS011;33199;47.590;8.300;2022-10-16T08:40:32;3.08;;;2.88;;
30593;SDS011;33199;47.590;8.300;2022-10-16T08:48:55;2.95;;;2.35;;
30593;SDS011;33199;47.590;8.300;2022-10-16T08:51:25;2.55;;;2.35;;
30593;SDS011;33199;47.590;8.300;2022-10-16T08:53:54;2.58;;;2.38;;
30593;SDS011;33199;47.590;8.300;2022-10-16T08:56:27;5.00;;;2.33;;
30593;SDS011;33199;47.590;8.300;2022-10-16T08:58:53;3.85;;;2.00;;
30593;SDS011;33199;47.590;8.300;2022-10-16T09:01:20;4.30;;;2.33;;
30593;SDS011;33199;47.590;8.300;2022-10-16T09:06:58;2.13;;;2.03;;
30593;SDS011;33199;47.590;8.300;2022-10-16T09:10:08;5.03;;;1.80;;
30593;SDS011;33199;47.590;8.300;2022-10-16T09:12:58;1.90;;;1.80;;
30593;SDS011;33199;47.590;8.300;2022-10-16T09:23:37;1.73;;;1.63;;
30593;SDS011;33199;47.590;8.300;2022-10-16T09:26:03;1.90;;;1.80;;
30593;SDS011;33199;47.590;8.300;2022-10-16T09:28:30;1.63;;;1.52;;
30593;SDS011;33199;47.590;8.300;2022-10-16T09:30:56;1.30;;;1.20;;
30593;SDS011;33199;47.590;8.300;2022-10-16T09:33:25;3.42;;;1.60;;
30593;SDS011;33199;47.590;8.300;2022-10-16T09:36:00;1.30;;;1.30;;
30593;SDS011;33199;47.590;8.300;2022-10-16T09:38:33;1.52;;;1.42;;
30593;SDS011;33199;47.590;8.300;2022-10-16T09:41:02;1.40;;;1.33;;
30593;SDS011;33199;47.590;8.300;2022-10-16T09:46:08;1.60;;;1.50;;
30593;SDS011;33199;47.590;8.300;2022-10-16T09:48:49;2.17;;;1.60;;
30593;SDS011;33199;47.590;8.300;2022-10-16T09:51:24;1.58;;;1.48;;
30593;SDS011;33199;47.590;8.300;2022-10-16T09:53:58;3.63;;;1.80;;
30593;SDS011;33199;47.590;8.300;2022-10-16T09:56:38;1.60;;;1.50;;
30593;SDS011;33199;47.590;8.300;2022-10-16T09:59:15;1.50;;;1.40;;
30593;SDS011;33199;47.590;8.300;2022-10-16T10:01:51;1.50;;;1.40;;
30593;SDS011;33199;47.590;8.300;2022-10-16T10:04:18;1.40;;;1.30;;
30593;SDS011;33199;47.590;8.300;2022-10-16T10:06:46;1.70;;;1.60;;
30593;SDS011;33199;47.590;8.300;2022-10-16T10:09:22;1.25;;;1.05;;
30593;SDS011;33199;47.590;8.300;2022-10-16T10:16:49;1.55;;;1.45;;
30593;SDS011;33199;47.590;8.300;2022-10-16T10:19:26;1.25;;;1.23;;
30593;SDS011;33199;47.590;8.300;2022-10-16T10:21:52;1.67;;;1.58;;
30593;SDS011;33199;47.590;8.300;2022-10-16T10:24:18;1.23;;;1.20;;
30593;SDS011;33199;47.590;8.300;2022-10-16T10:26:56;1.70;;;1.27;;
30593;SDS011;33199;47.590;8.300;2022-10-16T10:32:13;1.40;;;1.30;;
30593;SDS011;33199;47.590;8.300;2022-10-16T10:42:51;1.30;;;1.20;;
30593;SDS011;33199;47.590;8.300;2022-10-16T10:45:27;1.10;;;1.10;;
30593;SDS011;33199;47.590;8.300;2022-10-16T10:54:17;1.30;;;1.30;;
30593;SDS011;33199;47.590;8.300;2022-10-16T10:59:55;1.05;;;1.05;;
30593;SDS011;33199;47.590;8.300;2022-10-16T11:02:52;1.23;;;1.13;;
30593;SDS011;33199;47.590;8.300;2022-10-16T11:08:00;1.17;;;1.13;;
30593;SDS011;33199;47.590;8.300;2022-10-16T11:10:52;1.83;;;1.40;;
30593;SDS011;33199;47.590;8.300;2022-10-16T11:13:23;0.90;;;0.90;;
30593;SDS011;33199;47.590;8.300;2022-10-16T11:15:50;1.85;;;1.17;;
30593;SDS011;33199;47.590;8.300;2022-10-16T11:18:20;1.38;;;1.27;;
30593;SDS011;33199;47.590;8.300;2022-10-16T11:20:54;1.83;;;1.20;;
30593;SDS011;33199;47.590;8.300;2022-10-16T11:23:30;1.20;;;1.10;;
30593;SDS011;33199;47.590;8.300;2022-10-16T11:26:04;1.05;;;1.05;;
30593;SDS011;33199;47.590;8.300;2022-10-16T11:28:39;1.20;;;1.00;;
30593;SDS011;33199;47.590;8.300;2022-10-16T11:33:57;1.02;;;1.02;;
30593;SDS011;33199;47.590;8.300;2022-10-16T11:36:33;1.63;;;1.52;;
30593;SDS011;33199;47.590;8.300;2022-10-16T11:41:34;0.90;;;0.90;;
30593;SDS011;33199;47.590;8.300;2022-10-16T11:47:15;1.30;;;1.20;;
30593;SDS011;33199;47.590;8.300;2022-10-16T11:49:52;1.42;;;1.13;;
30593;SDS011;33199;47.590;8.300;2022-10-16T11:52:26;1.30;;;1.20;;
30593;SDS011;33199;47.590;8.300;2022-10-16T11:57:35;2.42;;;1.20;;
30593;SDS011;33199;47.590;8.300;2022-10-16T12:05:23;1.00;;;1.00;;
30593;SDS011;33199;47.590;8.300;2022-10-16T12:07:51;1.52;;;1.30;;
30593;SDS011;33199;47.590;8.300;2022-10-16T12:10:31;1.20;;;1.10;;
30593;SDS011;33199;47.590;8.300;2022-10-16T12:13:01;0.73;;;0.73;;
30593;SDS011;33199;47.590;8.300;2022-10-16T12:15:29;1.58;;;1.17;;
30593;SDS011;33199;47.590;8.300;2022-10-16T12:17:56;0.90;;;0.90;;
30593;SDS011;33199;47.590;8.300;2022-10-16T12:23:06;1.00;;;1.00;;
30593;SDS011;33199;47.590;8.300;2022-10-16T12:25:43;1.13;;;1.13;;
30593;SDS011;33199;47.590;8.300;2022-10-16T12:28:19;2.00;;;1.38;;
30593;SDS011;33199;47.590;8.300;2022-10-16T12:30:53;3.53;;;1.02;;
30593;SDS011;33199;47.590;8.300;2022-10-16T12:35:57;1.00;;;1.00;;
30593;SDS011;33199;47.590;8.300;2022-10-16T12:38:28;1.05;;;1.05;;
30593;SDS011;33199;47.590;8.300;2022-10-16T12:41:11;1.00;;;1.00;;
30593;SDS011;33199;47.590;8.300;2022-10-16T12:43:43;1.02;;;1.02;;
30593;SDS011;33199;47.590;8.300;2022-10-16T12:48:39;1.00;;;1.00;;
30593;SDS011;33199;47.590;8.300;2022-10-16T12:53:59;1.40;;;1.30;;
30593;SDS011;33199;47.590;8.300;2022-10-16T12:56:28;1.00;;;1.00;;
30593;SDS011;33199;47.590;8.300;2022-10-16T12:59:18;0.85;;;0.85;;
30593;SDS011;33199;47.590;8.300;2022-10-16T13:02:06;0.80;;;0.80;;
30593;SDS011;33199;47.590;8.300;2022-10-16T13:05:00;1.20;;;1.10;;
30593;SDS011;33199;47.590;8.300;2022-10-16T13:23:48;1.25;;;1.15;;
30593;SDS011;33199;47.590;8.300;2022-10-16T13:28:51;1.38;;;1.10;;
30593;SDS011;33199;47.590;8.300;2022-10-16T13:31:18;0.82;;;0.82;;
30593;SDS011;33199;47.590;8.300;2022-10-16T13:33:48;0.90;;;0.90;;
30593;SDS011;33199;47.590;8.300;2022-10-16T13:36:23;1.20;;;1.10;;
30593;SDS011;33199;47.590;8.300;2022-10-16T13:39:11;1.23;;;1.13;;
30593;SDS011;33199;47.590;8.300;2022-10-16T13:41:38;1.00;;;1.00;;
30593;SDS011;33199;47.590;8.300;2022-10-16T13:44:05;1.15;;;0.73;;
30593;SDS011;33199;47.590;8.300;2022-10-16T13:46:42;1.00;;;0.90;;
30593;SDS011;33199;47.590;8.300;2022-10-16T13:49:15;0.80;;;0.80;;
30593;SDS011;33199;47.590;8.300;2022-10-16T13:51:53;0.98;;;0.98;;
30593;SDS011;33199;47.590;8.300;2022-10-16T13:54:20;0.90;;;0.90;;
30593;SDS011;33199;47.590;8.300;2022-10-16T13:56:46;0.90;;;0.90;;
30593;SDS011;33199;47.590;8.300;2022-10-16T14:04:46;0.80;;;0.80;;
30593;SDS011;33199;47.590;8.300;2022-10-16T14:07:14;1.00;;;0.90;;
30593;SDS011;33199;47.590;8.300;2022-10-16T14:09:47;0.80;;;0.80;;
30593;SDS011;33199;47.590;8.300;2022-10-16T14:12:14;1.40;;;1.00;;
30593;SDS011;33199;47.590;8.300;2022-10-16T14:14:41;0.80;;;0.80;;
30593;SDS011;33199;47.590;8.300;2022-10-16T14:17:15;0.93;;;0.93;;
30593;SDS011;33199;47.590;8.300;2022-10-16T14:19:48;4.18;;;1.13;;
30593;SDS011;33199;47.590;8.300;2022-10-16T14:22:21;0.70;;;0.70;;
30593;SDS011;33199;47.590;8.300;2022-10-16T14:24:47;0.90;;;0.90;;
30593;SDS011;33199;47.590;8.300;2022-10-16T14:27:35;0.93;;;0.93;;
30593;SDS011;33199;47.590;8.300;2022-10-16T14:32:37;2.88;;;0.93;;
30593;SDS011;33199;47.590;8.300;2022-10-16T14:35:21;0.80;;;0.80;;
30593;SDS011;33199;47.590;8.300;2022-10-16T14:38:02;0.90;;;0.90;;
30593;SDS011;33199;47.590;8.300;2022-10-16T14:40:30;1.00;;;1.00;;
30593;SDS011;33199;47.590;8.300;2022-10-16T14:42:59;1.00;;;1.00;;
30593;SDS011;33199;47.590;8.300;2022-10-16T14:45:27;0.85;;;0.85;;
30593;SDS011;33199;47.590;8.300;2022-10-16T14:50:22;0.85;;;0.85;;
30593;SDS011;33199;47.590;8.300;2022-10-16T14:52:48;1.35;;;0.85;;
30593;SDS011;33199;47.590;8.300;2022-10-16T14:55:13;1.25;;;1.10;;
30593;SDS011;33199;47.590;8.300;2022-10-16T14:57:40;1.08;;;0.98;;
30593;SDS011;33199;47.590;8.300;2022-10-16T15:00:25;0.70;;;0.70;;
30593;SDS011;33199;47.590;8.300;2022-10-16T15:02:51;1.10;;;1.00;;
30593;SDS011;33199;47.590;8.300;2022-10-16T15:05:19;1.20;;;0.95;;
30593;SDS011;33199;47.590;8.300;2022-10-16T15:07:52;1.05;;;0.80;;
30593;SDS011;33199;47.590;8.300;2022-10-16T15:10:19;2.53;;;0.77;;
30593;SDS011;33199;47.590;8.300;2022-10-16T15:12:47;0.70;;;0.70;;
30593;SDS011;33199;47.590;8.300;2022-10-16T15:17:41;0.70;;;0.70;;
30593;SDS011;33199;47.590;8.300;2022-10-16T15:20:06;1.10;;;0.82;;
30593;SDS011;33199;47.590;8.300;2022-10-16T15:22:32;0.80;;;0.80;;
30593;SDS011;33199;47.590;8.300;2022-10-16T15:24:58;0.70;;;0.70;;
30593;SDS011;33199;47.590;8.300;2022-10-16T15:27:23;0.80;;;0.80;;
30593;SDS011;33199;47.590;8.300;2022-10-16T15:29:49;1.25;;;1.00;;
30593;SDS011;33199;47.590;8.300;2022-10-16T15:32:14;1.30;;;1.20;;
30593;SDS011;33199;47.590;8.300;2022-10-16T15:34:40;1.17;;;1.17;;
30593;SDS011;33199;47.590;8.300;2022-10-16T15:37:05;0.90;;;0.90;;
30593;SDS011;33199;47.590;8.300;2022-10-16T15:39:31;1.20;;;1.10;;
30593;SDS011;33199;47.590;8.300;2022-10-16T15:41:56;0.80;;;0.80;;
30593;SDS011;33199;47.590;8.300;2022-10-16T15:44:22;1.25;;;1.10;;
30593;SDS011;33199;47.590;8.300;2022-10-16T15:46:50;0.88;;;0.88;;
30593;SDS011;33199;47.590;8.300;2022-10-16T15:49:19;0.98;;;0.82;;
30593;SDS011;33199;47.590;8.300;2022-10-16T15:51:44;1.15;;;1.05;;
30593;SDS011;33199;47.590;8.300;2022-10-16T15:54:11;1.23;;;1.15;;
30593;SDS011;33199;47.590;8.300;2022-10-16T15:56:36;0.80;;;0.80;;
30593;SDS011;33199;47.590;8.300;2022-10-16T15:59:02;0.90;;;0.90;;
30593;SDS011;33199;47.590;8.300;2022-10-16T16:01:28;0.90;;;0.90;;
30593;SDS011;33199;47.590;8.300;2022-10-16T16:03:56;0.90;;;0.90;;
30593;SDS011;33199;47.590;8.300;2022-10-16T16:06:22;0.95;;;0.95;;
30593;SDS011;33199;47.590;8.300;2022-10-16T16:08:49;0.75;;;0.75;;
30593;SDS011;33199;47.590;8.300;2022-10-16T16:11:15;3.63;;;0.80;;
30593;SDS011;33199;47.590;8.300;2022-10-16T16:13:42;0.82;;;0.82;;
30593;SDS011;33199;47.590;8.300;2022-10-16T16:16:09;0.90;;;0.90;;
30593;SDS011;33199;47.590;8.300;2022-10-16T16:18:36;1.00;;;1.00;;
30593;SDS011;33199;47.590;8.300;2022-10-16T16:21:02;1.33;;;1.23;;
30593;SDS011;33199;47.590;8.300;2022-10-16T16:23:28;1.90;;;1.42;;
30593;SDS011;33199;47.590;8.300;2022-10-16T16:28:57;1.50;;;1.40;;
30593;SDS011;33199;47.590;8.300;2022-10-16T16:31:24;1.20;;;1.10;;
30593;SDS011;33199;47.590;8.300;2022-10-16T16:33:51;1.38;;;1.20;;
30593;SDS011;33199;47.590;8.300;2022-10-16T16:36:17;1.27;;;0.88;;
30593;SDS011;33199;47.590;8.300;2022-10-16T16:38:43;1.83;;;1.55;;
30593;SDS011;33199;47.590;8.300;2022-10-16T16:41:16;1.05;;;0.98;;
30593;SDS011;33199;47.590;8.300;2022-10-16T16:43:44;1.48;;;1.10;;
30593;SDS011;33199;47.590;8.300;2022-10-16T16:46:10;0.98;;;0.98;;
30593;SDS011;33199;47.590;8.300;2022-10-16T16:48:36;1.10;;;1.10;;
30593;SDS011;33199;47.590;8.300;2022-10-16T16:51:10;1.00;;;1.00;;
30593;SDS011;33199;47.590;8.300;2022-10-16T16:53:40;1.60;;;1.05;;
30593;SDS011;33199;47.590;8.300;2022-10-16T16:56:06;1.70;;;0.95;;
30593;SDS011;33199;47.590;8.300;2022-10-16T16:58:32;0.88;;;0.88;;
30593;SDS011;33199;47.590;8.300;2022-10-16T17:00:59;1.10;;;0.88;;
30593;SDS011;33199;47.590;8.300;2022-10-16T17:03:30;2.47;;;0.90;;
30593;SDS011;33199;47.590;8.300;2022-10-16T17:05:58;1.00;;;1.00;;
30593;SDS011;33199;47.590;8.300;2022-10-16T17:08:30;0.90;;;0.90;;
30593;SDS011;33199;47.590;8.300;2022-10-16T17:10:56;1.02;;;1.02;;
30593;SDS011;33199;47.590;8.300;2022-10-16T17:13:23;1.65;;;0.98;;
30593;SDS011;33199;47.590;8.300;2022-10-16T17:15:49;1.63;;;1.45;;
30593;SDS011;33199;47.590;8.300;2022-10-16T17:18:16;1.02;;;0.90;;
30593;SDS011;33199;47.590;8.300;2022-10-16T17:20:42;1.10;;;1.00;;